Pagrindinis puslapis
METAR-TAF:

METAR-TAF

Oro uostai :

Taškentas, Uzbekija

platuma: 41-16N, ilguma: 069-16E, Aukštis: 489 m

Dabartinis oras

Ataskaita buvo paskelbta 23 minutes, ne 20:30 UTC
Vėjas 4 kt iš Rytų
Temperatūra -1°C
Drėgmė 86%
Slėgis 1026 hPa
Matomumas: 3000 m
rūkana

METAR: UTTT 262030Z 08004KT 3000 BR NSC M01/M03 Q1026 R08R/CLRD70 NOSIG

Laikas: 01:53 (20:53 UTC)

Prognozė

Ataskaita buvo paskelbta 3 valandos ir 53 minutes, ne 17:00 UTC
Prognozė galioja nuo 26 metu 18 UTC su 27 metu 18 UTC
Vėjas 8 kt iš Rytų
Matomumas: 5000 m
rūkana
Laikinai
nuo 26 metu 18 UTC su 27 metu 03 UTC
Vėjas 2 kt nuo kintamojo kryptimis
Matomumas: 1000 m
rūkana, dūmai

TAF: UTTT 261700Z 2618/2718 09008KT 5000 BR NSC TEMPO 2618/2703 VRB02KT 1000 BR FU

Orai ataskaitas ir orų prognozės (METAR, TAF).

turimą stotys yra geltonos ir raudonos taškus žemėlapyje.

Perkelti pele per norėdami pamatyti stoties vardą.

Tada spustelėkite, norėdami matyti oro stebėjimo ir prognozės.

Norėdami pakeisti žemėlapį: spustelėkite ant žalios mygtukų su juodo kryžiaus žemyn,; žalią mygtuką su brūkšneliu, jei norite nutolinti; arba žalių rodyklių gretimoms žemėlapius.


METAR-TAF: